MMLM/LMM METAR and TAF weather

Enter ICAO airport designator
Station Type Date Time Source
MMLM METAR 2021/02/27 20:40 UTC NOAA

MMLM 272040Z 26014KT 10SM OVC220 26/09 A2989 RMK SLP122 8/007 HZY


Station Type Date Time Source
MMLM Decoded METAR 2021/02/27 20:40 UTC NOAA

Los Mochis Airport, Mexico (MMLM) 25-41N 109-05W
Feb 27, 2021 - 03:40 PM EST / 2021.02.27 2040 UTC
Wind: from the W (260 degrees) at 16 MPH (14 KT):0
Visibility: 10 mile(s):0
Sky conditions: overcast
Temperature: 78 F (26 C)
Dew Point: 48 F (9 C)
Relative Humidity: 34%
Pressure (altimeter): 29.89 in. Hg (1012 hPa)
ob: MMLM 272040Z 26014KT 10SM OVC220 26/09 A2989 RMK SLP122 8/007 HZY
cycle: 20

Station Type Date Time Source
MMLM TAF 2021/02/27 18:57 UTC NOAA

TAF TAF MMLM 271655Z 2718/2818 27015KT P6SM BKN100 BKN250
BECMG 2801/2802 00000KT
FM281500 32010KT P6SM BKN250

Example: see airport list